Time;durP1;ratioP1;P1;durP2;ratioP2;P2;SDS_P1;SDS_P2;PMS_P1;PMS_P2;Temp;Humidity;BMP_temperature;BMP_pressure;BME280_temperature;BME280_humidity;BME280_pressure;Samples;Min_cycle;Max_cycle;Signal;HPM_P1;HPM_P2
2022/09/11 00:01:05;;;;;;;7.30;2.20;;;15.70;99.90;;;;;;5093360;28;19996;-82
2022/09/11 00:03:31;;;;;;;2.53;1.75;;;15.70;99.90;;;;;;5093252;28;20550;-82
2022/09/11 00:06:05;;;;;;;3.47;1.95;;;15.70;99.90;;;;;;5093080;28;20051;-83
2022/09/11 00:08:31;;;;;;;4.18;2.00;;;15.70;99.90;;;;;;5092660;28;20027;-83
2022/09/11 00:11:03;;;;;;;4.70;1.83;;;15.70;99.90;;;;;;5092939;28;20020;-83
2022/09/11 00:13:30;;;;;;;4.47;2.10;;;15.70;99.90;;;;;;5092252;28;20064;-83
2022/09/11 00:15:56;;;;;;;5.15;1.92;;;15.70;99.90;;;;;;5099107;28;20046;-82
2022/09/11 00:18:21;;;;;;;5.25;2.17;;;15.70;99.90;;;;;;5113174;28;20076;-83
2022/09/11 00:20:52;;;;;;;2.85;1.70;;;15.60;99.90;;;;;;5113262;28;20091;-82
2022/09/11 00:23:19;;;;;;;3.42;1.83;;;15.60;99.90;;;;;;5112676;28;20467;-83
2022/09/11 00:25:46;;;;;;;4.07;1.80;;;15.60;99.90;;;;;;5113062;28;20024;-82
2022/09/11 00:28:23;;;;;;;3.10;1.70;;;15.60;99.90;;;;;;5112668;28;20126;-82
2022/09/11 00:31:08;;;;;;;3.00;1.75;;;15.60;99.90;;;;;;5098612;28;20020;-82
2022/09/11 00:33:35;;;;;;;3.90;1.70;;;15.50;99.90;;;;;;5052180;28;20051;-82
2022/09/11 00:36:05;;;;;;;2.38;1.73;;;15.60;99.90;;;;;;5052124;28;20032;-82
2022/09/11 00:38:32;;;;;;;3.35;1.85;;;15.70;99.90;;;;;;5052267;28;20107;-82
2022/09/11 00:40:59;;;;;;;3.58;1.60;;;15.70;99.90;;;;;;5052772;28;20388;-82
2022/09/11 00:43:27;;;;;;;3.83;1.80;;;15.60;99.90;;;;;;5052455;28;20017;-82
2022/09/11 00:46:04;;;;;;;1.67;1.50;;;15.70;99.90;;;;;;5052603;28;20108;-82
2022/09/11 00:48:35;;;;;;;4.63;2.05;;;15.60;99.90;;;;;;5052947;28;20025;-82
2022/09/11 00:51:04;;;;;;;4.57;1.83;;;15.60;99.90;;;;;;5051582;28;20051;-83
2022/09/11 00:53:34;;;;;;;2.05;1.50;;;15.60;99.90;;;;;;5052158;28;20071;-82
2022/09/11 00:56:06;;;;;;;2.88;1.75;;;15.40;99.90;;;;;;5052416;28;20099;-82
2022/09/11 00:58:37;;;;;;;5.07;1.92;;;15.30;99.90;;;;;;5051970;28;20048;-83
2022/09/11 01:01:03;;;;;;;4.10;1.92;;;15.40;99.90;;;;;;5051794;28;20033;-82
2022/09/11 01:03:30;;;;;;;6.53;2.00;;;15.40;99.90;;;;;;5052063;28;20527;-82
2022/09/11 01:05:57;;;;;;;2.85;1.77;;;15.40;99.90;;;;;;5051869;28;20024;-82
2022/09/11 01:08:23;;;;;;;3.47;1.77;;;15.30;99.90;;;;;;5052335;28;20052;-83
2022/09/11 01:10:55;;;;;;;3.92;1.85;;;15.40;99.90;;;;;;5051828;28;20496;-83
2022/09/11 01:13:36;;;;;;;2.67;1.42;;;15.50;99.90;;;;;;5051910;28;20113;-83
2022/09/11 01:16:11;;;;;;;4.13;2.22;;;15.50;99.90;;;;;;5051859;28;20059;-82
2022/09/11 01:18:54;;;;;;;3.97;1.85;;;15.60;99.90;;;;;;5051948;28;20120;-82
2022/09/11 01:21:35;;;;;;;2.28;1.40;;;15.40;99.90;;;;;;5051644;28;20041;-82
2022/09/11 01:24:17;;;;;;;3.00;1.80;;;15.30;99.90;;;;;;5053160;28;20056;-82
2022/09/11 01:26:58;;;;;;;4.47;1.85;;;15.30;99.90;;;;;;5055756;28;20021;-82
2022/09/11 01:29:51;;;;;;;5.25;1.52;;;15.20;99.90;;;;;;5055693;28;20075;-83
2022/09/11 01:32:19;;;;;;;5.93;1.50;;;15.00;99.90;;;;;;5078642;28;20273;-83
2022/09/11 01:35:11;;;;;;;2.15;1.45;;;14.90;99.90;;;;;;5095730;28;20035;-83
2022/09/11 01:37:49;;;;;;;2.63;1.45;;;14.80;99.90;;;;;;5013550;28;20209;-83
2022/09/11 01:40:44;;;;;;;4.75;1.60;;;14.90;99.90;;;;;;5013838;28;20518;-83
2022/09/11 01:43:14;;;;;;;7.68;1.80;;;14.90;99.90;;;;;;5014118;28;20065;-82
2022/09/11 01:45:43;;;;;;;3.30;1.50;;;14.80;99.90;;;;;;5013476;28;20032;-82
2022/09/11 01:48:12;;;;;;;4.20;1.60;;;14.80;99.90;;;;;;5013162;28;20096;-83
2022/09/11 01:50:41;;;;;;;2.67;1.52;;;14.70;99.90;;;;;;5013296;28;20751;-83
2022/09/11 01:53:11;;;;;;;5.00;1.90;;;14.70;99.90;;;;;;5013085;28;20049;-82
2022/09/11 01:55:41;;;;;;;3.88;1.50;;;14.80;99.90;;;;;;5013647;28;20038;-82
2022/09/11 01:58:19;;;;;;;1.63;1.30;;;14.70;99.90;;;;;;5013681;28;20040;-82
2022/09/11 02:00:48;;;;;;;4.78;1.42;;;14.60;99.90;;;;;;5013621;28;20449;-83
2022/09/11 02:03:39;;;;;;;2.47;1.33;;;14.60;99.90;;;;;;5013381;28;20021;-82
2022/09/11 02:06:09;;;;;;;6.35;1.52;;;14.60;99.90;;;;;;5012684;28;20038;-83
2022/09/11 02:09:04;;;;;;;2.70;1.60;;;14.60;99.90;;;;;;5012951;28;20100;-82
2022/09/11 02:11:39;;;;;;;1.58;1.30;;;14.50;99.90;;;;;;5005068;28;20050;-82
2022/09/11 02:14:33;;;;;;;3.45;1.40;;;14.50;99.90;;;;;;5036753;28;20044;-83
2022/09/11 02:17:16;;;;;;;4.40;1.48;;;14.50;99.90;;;;;;5094956;28;20038;-82
2022/09/11 02:19:43;;;;;;;4.25;1.30;;;14.50;99.90;;;;;;5094914;28;20024;-82
2022/09/11 02:22:08;;;;;;;2.42;1.48;;;14.40;99.90;;;;;;5095049;28;20024;-83
2022/09/11 02:24:34;;;;;;;3.88;1.70;;;14.40;99.90;;;;;;5094991;28;20035;-82
2022/09/11 02:27:05;;;;;;;3.88;1.70;;;14.30;99.90;;;;;;5094771;28;20028;-83
2022/09/11 02:29:31;;;;;;;4.40;1.58;;;14.30;99.90;;;;;;5095027;28;20400;-82
2022/09/11 02:31:59;;;;;;;2.50;1.70;;;14.30;99.90;;;;;;5094294;28;20056;-82
2022/09/11 02:34:31;;;;;;;1.73;1.50;;;14.30;99.90;;;;;;5095197;28;20093;-83
2022/09/11 02:37:07;;;;;;;5.15;1.65;;;14.30;99.90;;;;;;5093882;28;20491;-82
2022/09/11 02:39:51;;;;;;;4.15;1.70;;;14.30;99.90;;;;;;5094355;28;20020;-83
2022/09/11 02:42:53;;;;;;;2.65;1.40;;;14.30;99.90;;;;;;5094930;28;20365;-82
2022/09/11 02:45:28;;;;;;;3.28;1.77;;;14.30;99.90;;;;;;5094522;28;20036;-82
2022/09/11 02:48:10;;;;;;;4.22;1.60;;;14.20;99.90;;;;;;5094376;28;20072;-83
2022/09/11 02:50:47;;;;;;;4.07;1.63;;;14.20;99.90;;;;;;5094668;28;20031;-82
2022/09/11 02:53:35;;;;;;;5.65;1.80;;;14.30;99.90;;;;;;5094813;28;20039;-82
2022/09/11 02:56:45;;;;;;;3.25;1.58;;;14.30;99.90;;;;;;5094348;28;20031;-82
2022/09/11 02:59:24;;;;;;;3.05;1.63;;;14.30;99.90;;;;;;5012182;28;20144;-82
2022/09/11 03:01:53;;;;;;;2.40;1.58;;;14.40;99.90;;;;;;5011830;28;20026;-82
2022/09/11 03:04:21;;;;;;;4.47;1.80;;;14.40;99.90;;;;;;5012107;28;20423;-82
2022/09/11 03:06:48;;;;;;;2.13;1.50;;;14.30;99.90;;;;;;5012151;28;20386;-83
2022/09/11 03:09:15;;;;;;;3.65;1.80;;;14.30;99.90;;;;;;5011933;28;20062;-82
2022/09/11 03:11:42;;;;;;;5.32;1.85;;;14.30;99.90;;;;;;5011925;28;20029;-82
2022/09/11 03:14:08;;;;;;;2.60;1.60;;;14.30;99.90;;;;;;5011829;28;20045;-82
2022/09/11 03:16:34;;;;;;;3.58;1.83;;;14.20;99.90;;;;;;5011519;28;20046;-82
2022/09/11 03:18:59;;;;;;;2.85;1.67;;;14.20;99.90;;;;;;5012131;28;20030;-83
2022/09/11 03:21:25;;;;;;;4.72;2.00;;;14.10;99.90;;;;;;5011810;28;20386;-82
2022/09/11 03:23:51;;;;;;;2.50;1.60;;;14.10;99.90;;;;;;5011778;28;20038;-82
2022/09/11 03:26:17;;;;;;;3.22;1.40;;;14.00;99.90;;;;;;5012005;28;20045;-83
2022/09/11 03:28:43;;;;;;;3.67;1.98;;;13.90;99.90;;;;;;5011332;28;20046;-82
2022/09/11 03:31:09;;;;;;;4.18;1.50;;;13.90;99.90;;;;;;5011213;28;20025;-83
2022/09/11 03:33:35;;;;;;;4.75;1.98;;;13.90;99.90;;;;;;5011394;28;20060;-83
2022/09/11 03:36:00;;;;;;;4.00;1.80;;;14.00;99.90;;;;;;5051577;28;20033;-83
2022/09/11 03:38:26;;;;;;;4.32;2.00;;;13.90;99.90;;;;;;5073136;28;20024;-82
2022/09/11 03:40:53;;;;;;;4.13;2.08;;;13.90;99.90;;;;;;5073386;28;20035;-82
2022/09/11 03:43:20;;;;;;;4.43;1.88;;;13.90;99.90;;;;;;5072981;28;20384;-83
2022/09/11 03:45:50;;;;;;;4.13;1.75;;;14.00;99.90;;;;;;5073082;28;20037;-82
2022/09/11 03:48:17;;;;;;;2.97;1.77;;;14.00;99.90;;;;;;5072730;28;20485;-83
2022/09/11 03:50:44;;;;;;;5.70;2.05;;;13.90;99.90;;;;;;5073062;28;20473;-82
2022/09/11 03:53:10;;;;;;;3.35;1.70;;;14.00;99.90;;;;;;5073651;28;20111;-83
2022/09/11 03:55:36;;;;;;;2.63;1.90;;;14.00;99.90;;;;;;5072770;28;20029;-82
2022/09/11 03:58:02;;;;;;;4.10;1.80;;;13.90;99.90;;;;;;5073050;28;20066;-82
2022/09/11 04:00:27;;;;;;;5.00;1.75;;;13.80;99.90;;;;;;5072721;28;20036;-82
2022/09/11 04:02:54;;;;;;;3.53;1.80;;;13.80;99.90;;;;;;5072843;28;20048;-82
2022/09/11 04:05:22;;;;;;;2.95;1.67;;;13.90;99.90;;;;;;5072611;28;20059;-82
2022/09/11 04:07:48;;;;;;;2.35;1.50;;;13.80;99.90;;;;;;5072792;28;20052;-82
2022/09/11 04:10:14;;;;;;;2.63;1.77;;;13.90;99.90;;;;;;5072817;28;20473;-82
2022/09/11 04:12:40;;;;;;;2.72;1.75;;;13.90;99.90;;;;;;5073107;28;20027;-82
2022/09/11 04:15:07;;;;;;;3.40;1.90;;;13.80;99.90;;;;;;5072408;28;20021;-82
2022/09/11 04:17:33;;;;;;;2.22;1.77;;;13.80;99.90;;;;;;5112647;28;20023;-82
2022/09/11 04:19:59;;;;;;;4.22;1.95;;;13.70;99.90;;;;;;5113017;28;20042;-83
2022/09/11 04:22:25;;;;;;;3.45;1.50;;;13.50;99.90;;;;;;5113525;28;20028;-82
2022/09/11 04:24:51;;;;;;;2.72;1.83;;;13.50;99.90;;;;;;5113198;28;20020;-82
2022/09/11 04:27:17;;;;;;;3.50;2.10;;;13.70;99.90;;;;;;5113424;28;20027;-83
2022/09/11 04:29:43;;;;;;;3.92;1.70;;;13.60;99.90;;;;;;5107632;28;20434;-82
2022/09/11 04:32:10;;;;;;;3.65;2.17;;;13.70;99.90;;;;;;5092190;28;20087;-82
2022/09/11 04:34:36;;;;;;;3.53;2.00;;;13.40;99.90;;;;;;5092259;28;20090;-83
2022/09/11 04:37:02;;;;;;;3.83;2.00;;;13.30;99.90;;;;;;5092746;28;20024;-82
2022/09/11 04:39:29;;;;;;;4.43;2.20;;;13.30;99.90;;;;;;5092536;28;20028;-82
2022/09/11 04:41:56;;;;;;;2.45;1.90;;;13.40;99.90;;;;;;5091575;28;20416;-83
2022/09/11 04:44:22;;;;;;;4.72;1.90;;;13.40;99.90;;;;;;5091638;28;20032;-82
2022/09/11 04:46:48;;;;;;;4.82;2.15;;;13.50;99.90;;;;;;5091690;28;20016;-83
2022/09/11 04:49:14;;;;;;;3.53;2.30;;;13.40;99.90;;;;;;5092395;28;20077;-82
2022/09/11 04:51:40;;;;;;;4.28;2.10;;;13.80;99.90;;;;;;5092437;28;20044;-82
2022/09/11 04:54:06;;;;;;;6.15;2.00;;;13.40;99.90;;;;;;5092155;28;20032;-82
2022/09/11 04:56:38;;;;;;;3.22;1.83;;;13.30;99.90;;;;;;5092861;28;20101;-83
2022/09/11 04:59:14;;;;;;;5.32;1.92;;;13.30;99.90;;;;;;5091929;28;20507;-83
2022/09/11 05:01:41;;;;;;;4.63;2.00;;;13.20;99.90;;;;;;5092097;28;20018;-82
2022/09/11 05:04:07;;;;;;;5.18;1.83;;;13.20;99.90;;;;;;5092047;28;20020;-83
2022/09/11 05:06:33;;;;;;;2.30;1.83;;;13.10;99.90;;;;;;5092196;28;20028;-84
2022/09/11 05:09:04;;;;;;;2.45;2.10;;;13.40;99.90;;;;;;5091842;28;20111;-84
2022/09/11 05:11:30;;;;;;;6.05;1.80;;;13.60;99.90;;;;;;5091918;28;20107;-84
2022/09/11 05:13:59;;;;;;;3.17;1.95;;;13.80;99.90;;;;;;5092172;28;20040;-84
2022/09/11 05:16:26;;;;;;;5.03;2.10;;;13.90;99.90;;;;;;5092044;28;20028;-84
2022/09/11 05:18:52;;;;;;;6.63;2.00;;;13.90;99.90;;;;;;5092169;28;20036;-84
2022/09/11 05:21:23;;;;;;;3.40;2.20;;;13.90;99.90;;;;;;5091986;28;20028;-84
2022/09/11 05:23:53;;;;;;;3.92;1.98;;;13.90;99.90;;;;;;5092098;28;20036;-82
2022/09/11 05:26:29;;;;;;;3.28;1.75;;;14.00;99.90;;;;;;5091677;28;20384;-82
2022/09/11 05:29:00;;;;;;;4.00;1.95;;;14.20;99.90;;;;;;5091100;28;20040;-82
2022/09/11 05:31:27;;;;;;;1.83;1.63;;;14.20;99.90;;;;;;5091675;28;20400;-83
2022/09/11 05:33:54;;;;;;;3.45;1.95;;;14.20;99.90;;;;;;5092182;28;20040;-82
2022/09/11 05:36:21;;;;;;;3.35;1.90;;;14.20;99.90;;;;;;5091891;28;20476;-81
2022/09/11 05:38:47;;;;;;;4.85;1.90;;;14.10;99.90;;;;;;5092071;28;20032;-82
2022/09/11 05:41:14;;;;;;;5.80;1.80;;;14.20;99.90;;;;;;5091620;28;20024;-82
2022/09/11 05:43:41;;;;;;;3.72;1.92;;;14.10;99.90;;;;;;5092052;28;20030;-82
2022/09/11 05:46:10;;;;;;;2.00;1.80;;;14.20;99.90;;;;;;5092412;28;20024;-82
2022/09/11 05:48:37;;;;;;;3.88;1.80;;;14.30;99.90;;;;;;5092118;28;20481;-83
2022/09/11 05:51:14;;;;;;;2.78;1.88;;;14.30;99.90;;;;;;5092018;28;20099;-82
2022/09/11 05:53:40;;;;;;;3.38;1.95;;;14.20;99.90;;;;;;5091837;28;20032;-82
2022/09/11 05:56:13;;;;;;;5.60;1.92;;;14.20;99.90;;;;;;5091454;28;20108;-82
2022/09/11 05:58:39;;;;;;;3.33;2.00;;;14.30;99.90;;;;;;5091875;28;20030;-82
2022/09/11 06:01:07;;;;;;;3.45;1.90;;;14.30;99.90;;;;;;5092154;28;20103;-82
2022/09/11 06:03:34;;;;;;;3.25;1.77;;;14.30;99.90;;;;;;5091664;28;20036;-82
2022/09/11 06:06:01;;;;;;;4.63;2.20;;;14.40;99.90;;;;;;5091744;28;20031;-82
2022/09/11 06:08:27;;;;;;;3.35;1.85;;;14.40;99.90;;;;;;5092068;28;20440;-82
2022/09/11 06:10:53;;;;;;;3.55;2.00;;;14.40;99.90;;;;;;5091899;28;20020;-82
2022/09/11 06:13:18;;;;;;;3.40;1.95;;;14.40;99.90;;;;;;5095027;28;20028;-82
2022/09/11 06:15:45;;;;;;;4.18;2.00;;;14.60;99.90;;;;;;5095244;28;20028;-82
2022/09/11 06:18:11;;;;;;;5.45;2.33;;;14.60;99.90;;;;;;5095240;28;20054;-83
2022/09/11 06:20:37;;;;;;;3.22;1.92;;;14.60;99.90;;;;;;5095006;28;20496;-82
2022/09/11 06:23:03;;;;;;;3.85;2.13;;;14.70;99.90;;;;;;5095113;28;20035;-82
2022/09/11 06:25:28;;;;;;;4.10;1.90;;;14.70;99.90;;;;;;5095289;28;20490;-82
2022/09/11 06:27:54;;;;;;;2.95;2.10;;;14.60;99.90;;;;;;5094779;28;20028;-82
2022/09/11 06:30:20;;;;;;;4.10;2.00;;;14.70;99.90;;;;;;5095080;28;20012;-82
2022/09/11 06:32:47;;;;;;;3.20;1.67;;;14.70;99.90;;;;;;5094630;28;20052;-82
2022/09/11 06:35:13;;;;;;;3.25;2.08;;;14.80;99.90;;;;;;5094858;28;20062;-82
2022/09/11 06:37:39;;;;;;;5.03;2.47;;;14.90;99.90;;;;;;5094730;28;20043;-82
2022/09/11 06:40:05;;;;;;;5.43;2.15;;;14.80;99.90;;;;;;5094948;28;20567;-82
2022/09/11 06:42:30;;;;;;;3.08;2.20;;;15.00;99.90;;;;;;5094721;28;20099;-83
2022/09/11 06:44:56;;;;;;;3.17;2.05;;;15.00;99.90;;;;;;5094275;28;20107;-82
2022/09/11 06:47:22;;;;;;;2.38;1.92;;;15.00;99.90;;;;;;5094856;28;20046;-82
2022/09/11 06:49:48;;;;;;;2.88;2.15;;;14.80;99.90;;;;;;5094573;28;20054;-82
2022/09/11 06:52:13;;;;;;;3.83;2.10;;;14.90;99.90;;;;;;5094474;28;20024;-82
2022/09/11 06:54:39;;;;;;;3.65;2.05;;;14.80;99.90;;;;;;5093995;28;20089;-83
2022/09/11 06:57:05;;;;;;;5.05;2.10;;;14.90;99.90;;;;;;5094351;28;20361;-82
2022/09/11 06:59:30;;;;;;;5.55;2.35;;;15.10;99.90;;;;;;5094932;28;20077;-82
2022/09/11 07:01:56;;;;;;;2.90;2.00;;;15.20;99.90;;;;;;5094519;28;20021;-82
2022/09/11 07:04:23;;;;;;;4.65;2.10;;;15.40;99.90;;;;;;5094433;28;20032;-82
2022/09/11 07:06:49;;;;;;;5.38;2.13;;;15.50;99.90;;;;;;5094226;28;20101;-82
2022/09/11 07:09:15;;;;;;;3.63;2.17;;;15.70;99.90;;;;;;5093755;28;20492;-82
2022/09/11 07:11:43;;;;;;;2.45;1.88;;;15.60;99.90;;;;;;5094326;28;20080;-82
2022/09/11 07:14:09;;;;;;;4.18;2.00;;;15.60;99.90;;;;;;5094043;28;20504;-83
2022/09/11 07:16:35;;;;;;;5.60;2.25;;;15.50;99.90;;;;;;5093810;28;20057;-82
2022/09/11 07:19:02;;;;;;;2.33;1.77;;;15.90;99.90;;;;;;5094005;28;20028;-82
2022/09/11 07:21:28;;;;;;;3.42;2.20;;;16.00;99.90;;;;;;5093561;28;20017;-82
2022/09/11 07:23:56;;;;;;;3.97;2.00;;;16.10;99.90;;;;;;5093743;28;20027;-82
2022/09/11 07:26:24;;;;;;;4.15;2.25;;;16.20;99.90;;;;;;5094245;28;20493;-82
2022/09/11 07:28:51;;;;;;;3.00;1.80;;;16.20;99.90;;;;;;5093820;28;20032;-82
2022/09/11 07:31:21;;;;;;;4.20;1.60;;;16.30;99.90;;;;;;5075353;28;20514;-82
2022/09/11 07:33:48;;;;;;;4.28;2.10;;;16.40;99.90;;;;;;5094065;28;20040;-82
2022/09/11 07:36:25;;;;;;;2.80;2.03;;;16.50;99.90;;;;;;5093370;28;20035;-82
2022/09/11 07:38:50;;;;;;;5.68;2.45;;;16.70;99.90;;;;;;5093600;28;20109;-82
2022/09/11 07:41:19;;;;;;;3.60;2.45;;;16.70;99.90;;;;;;5093496;28;20051;-82
2022/09/11 07:43:44;;;;;;;5.32;2.63;;;16.80;99.90;;;;;;5094045;28;20051;-82
2022/09/11 07:46:11;;;;;;;2.40;2.15;;;16.90;99.90;;;;;;5093316;28;20472;-83
2022/09/11 07:48:38;;;;;;;4.38;2.38;;;16.80;99.90;;;;;;5093571;28;20051;-82
2022/09/11 07:51:08;;;;;;;3.58;2.10;;;16.90;99.90;;;;;;5093165;28;20048;-82
2022/09/11 07:53:45;;;;;;;4.57;2.13;;;17.00;99.90;;;;;;5093278;28;20111;-82
2022/09/11 07:56:23;;;;;;;2.55;2.20;;;17.00;99.90;;;;;;5093567;28;20098;-83
2022/09/11 07:58:51;;;;;;;4.18;2.03;;;17.10;99.90;;;;;;5092865;28;20101;-82
2022/09/11 08:01:18;;;;;;;5.15;2.50;;;17.00;99.90;;;;;;5093505;28;20028;-82
2022/09/11 08:03:44;;;;;;;4.15;2.17;;;17.00;99.90;;;;;;5093361;28;20024;-82
2022/09/11 08:06:13;;;;;;;2.95;2.10;;;17.20;99.90;;;;;;5092811;28;20369;-82
2022/09/11 08:08:40;;;;;;;3.67;2.35;;;17.30;99.90;;;;;;5093087;28;20031;-82
2022/09/11 08:11:12;;;;;;;2.53;1.67;;;17.40;99.90;;;;;;5092964;28;20494;-82
2022/09/11 08:13:37;;;;;;;3.83;2.10;;;17.40;99.90;;;;;;5092814;28;20040;-81
2022/09/11 08:16:04;;;;;;;2.25;1.92;;;17.50;99.90;;;;;;5092946;28;20028;-82
2022/09/11 08:18:31;;;;;;;5.28;2.17;;;17.50;99.90;;;;;;5092750;28;20050;-83
2022/09/11 08:21:07;;;;;;;3.75;2.00;;;17.60;99.90;;;;;;5092356;28;20512;-82
2022/09/11 08:23:33;;;;;;;4.32;1.88;;;17.70;99.90;;;;;;5093011;28;20059;-82
2022/09/11 08:26:29;;;;;;;4.30;2.05;;;17.70;99.90;;;;;;5092710;28;20054;-82
2022/09/11 08:28:56;;;;;;;3.65;1.73;;;17.80;99.90;;;;;;5092545;28;20388;-82
2022/09/11 08:31:27;;;;;;;3.47;1.80;;;17.80;99.90;;;;;;5092328;28;20074;-82
2022/09/11 08:33:53;;;;;;;3.80;1.63;;;17.90;99.90;;;;;;5091845;28;20047;-82
2022/09/11 08:36:19;;;;;;;5.45;2.00;;;18.00;99.90;;;;;;5092205;28;20024;-83
2022/09/11 08:38:46;;;;;;;4.72;1.83;;;18.10;99.90;;;;;;5092803;28;20031;-82
2022/09/11 08:41:18;;;;;;;5.55;1.95;;;18.10;99.90;;;;;;5092448;28;20031;-82
2022/09/11 08:43:56;;;;;;;2.65;1.63;;;18.00;99.90;;;;;;5092471;28;20111;-82
2022/09/11 08:46:25;;;;;;;4.00;1.80;;;18.10;99.90;;;;;;5092291;28;20019;-82
2022/09/11 08:49:13;;;;;;;8.60;1.90;;;18.10;99.90;;;;;;5092066;28;20020;-82
2022/09/11 08:51:39;;;;;;;3.35;1.80;;;18.20;99.90;;;;;;5092385;28;20488;-82
2022/09/11 08:54:05;;;;;;;3.58;1.70;;;18.30;99.90;;;;;;5092713;28;20111;-82
2022/09/11 08:56:35;;;;;;;6.13;1.80;;;18.40;99.90;;;;;;5092464;28;20043;-82
2022/09/11 08:59:27;;;;;;;3.97;1.77;;;18.50;99.90;;;;;;5092352;28;20031;-82
2022/09/11 09:02:05;;;;;;;4.40;1.63;;;18.60;99.90;;;;;;5092457;28;20034;-82
2022/09/11 09:04:40;;;;;;;2.65;1.80;;;18.70;99.90;;;;;;5091932;28;20028;-82
2022/09/11 09:07:06;;;;;;;2.88;1.75;;;18.70;99.90;;;;;;5092670;28;20024;-82
2022/09/11 09:09:37;;;;;;;4.00;1.77;;;18.80;99.90;;;;;;5092106;28;20388;-82
2022/09/11 09:12:14;;;;;;;2.40;1.80;;;19.00;99.90;;;;;;5092453;28;20024;-82
2022/09/11 09:14:50;;;;;;;4.05;1.65;;;19.10;99.90;;;;;;5092271;28;20029;-82
2022/09/11 09:17:25;;;;;;;4.55;1.67;;;19.40;99.90;;;;;;5091845;28;20032;-82
2022/09/11 09:20:14;;;;;;;4.50;1.80;;;19.50;99.90;;;;;;5092084;28;20032;-82
2022/09/11 09:23:01;;;;;;;2.97;1.27;;;19.50;99.90;;;;;;5092435;28;20044;-82
2022/09/11 09:25:27;;;;;;;2.70;1.40;;;19.40;99.90;;;;;;5092093;28;20074;-82
2022/09/11 09:28:13;;;;;;;4.43;1.80;;;20.00;99.90;;;;;;5092056;28;20388;-82
2022/09/11 09:30:49;;;;;;;4.20;1.63;;;20.70;99.90;;;;;;5091807;28;20412;-82
2022/09/11 09:33:24;;;;;;;2.58;1.33;;;24.80;99.90;;;;;;5091349;28;20464;-82
2022/09/11 09:35:50;;;;;;;1.67;1.15;;;29.90;99.90;;;;;;5092043;28;20051;-82
2022/09/11 09:38:20;;;;;;;3.00;1.38;;;33.50;99.90;;;;;;5091779;28;20030;-82
2022/09/11 09:41:08;;;;;;;2.63;1.38;;;35.10;99.90;;;;;;5091945;28;20089;-82
2022/09/11 09:43:54;;;;;;;4.10;1.98;;;36.10;99.90;;;;;;5009604;28;20026;-83
2022/09/11 09:46:55;;;;;;;2.40;1.30;;;36.80;99.90;;;;;;5012931;28;20129;-82
2022/09/11 09:49:32;;;;;;;3.10;1.55;;;36.10;99.90;;;;;;5000822;28;20057;-82
2022/09/11 09:52:04;;;;;;;4.28;1.60;;;37.60;99.90;;;;;;5013927;28;20034;-82
2022/09/11 09:54:32;;;;;;;2.78;1.60;;;38.00;99.90;;;;;;5013426;28;20066;-82
2022/09/11 09:57:04;;;;;;;2.20;1.48;;;38.40;99.90;;;;;;5013251;28;20353;-83
2022/09/11 09:59:53;;;;;;;3.78;1.33;;;38.30;99.90;;;;;;5013770;28;20030;-83
2022/09/11 10:02:38;;;;;;;3.10;1.40;;;38.80;99.90;;;;;;5013208;28;20217;-83
2022/09/11 10:05:19;;;;;;;3.40;1.20;;;39.00;99.90;;;;;;5013570;28;20045;-82
2022/09/11 10:07:53;;;;;;;3.47;1.30;;;39.70;99.90;;;;;;5012988;28;20041;-83
2022/09/11 10:10:35;;;;;;;2.85;1.30;;;39.30;99.90;;;;;;5013073;28;20516;-83
2022/09/11 10:13:04;;;;;;;2.20;1.30;;;39.60;99.90;;;;;;5012983;28;20406;-83
2022/09/11 10:15:30;;;;;;;2.95;1.33;;;39.00;99.90;;;;;;5013577;28;20033;-83
2022/09/11 10:18:31;;;;;;;2.45;1.10;;;39.40;99.90;;;;;;5012593;28;20060;-83
2022/09/11 10:21:11;;;;;;;3.00;1.30;;;40.20;99.90;;;;;;5065168;28;20035;-83
2022/09/11 10:23:53;;;;;;;2.60;1.42;;;40.70;99.90;;;;;;5095068;28;20403;-83
2022/09/11 10:26:42;;;;;;;2.45;1.40;;;40.50;99.90;;;;;;5095004;28;20036;-83
2022/09/11 10:29:28;;;;;;;1.95;1.30;;;41.50;99.90;;;;;;5094973;28;20426;-83
2022/09/11 10:31:56;;;;;;;2.35;0.95;;;40.50;99.90;;;;;;5074257;28;20071;-83
2022/09/11 10:34:27;;;;;;;2.33;1.20;;;40.30;99.90;;;;;;5074900;28;20500;-83
2022/09/11 10:37:01;;;;;;;2.00;1.10;;;40.50;99.90;;;;;;5074520;28;20051;-83
2022/09/11 10:39:30;;;;;;;1.88;1.00;;;40.90;99.90;;;;;;5075044;28;20472;-83
2022/09/11 10:42:00;;;;;;;2.47;1.00;;;40.90;99.90;;;;;;5074752;28;20016;-83
2022/09/11 10:44:28;;;;;;;4.95;1.25;;;41.40;99.90;;;;;;5075015;28;20036;-83
2022/09/11 10:47:05;;;;;;;2.10;1.02;;;41.60;99.90;;;;;;5074061;28;20062;-83
2022/09/11 10:49:32;;;;;;;2.10;1.00;;;41.30;99.90;;;;;;5074249;28;20032;-83
2022/09/11 10:52:15;;;;;;;1.63;1.10;;;41.50;99.90;;;;;;5074390;28;20020;-83
2022/09/11 10:54:44;;;;;;;2.33;1.05;;;41.70;99.90;;;;;;5074346;28;20439;-83
2022/09/11 10:57:39;;;;;;;2.75;1.10;;;41.60;99.90;;;;;;5073325;28;20185;-83
2022/09/11 11:00:22;;;;;;;1.55;0.90;;;41.90;99.90;;;;;;5056251;28;20483;-83
2022/09/11 11:02:49;;;;;;;3.45;1.00;;;40.60;99.90;;;;;;5074294;28;20093;-83
2022/09/11 11:05:44;;;;;;;2.03;0.90;;;39.80;99.90;;;;;;5074499;28;20032;-83
2022/09/11 11:08:50;;;;;;;2.92;1.33;;;41.80;99.90;;;;;;5060078;28;20024;-83
2022/09/11 11:11:34;;;;;;;1.45;0.80;;;42.50;99.90;;;;;;5073891;28;20115;-83
2022/09/11 11:14:33;;;;;;;2.17;1.20;;;42.70;99.90;;;;;;5073404;28;20032;-83
2022/09/11 11:17:21;;;;;;;1.33;0.90;;;43.30;99.90;;;;;;5088986;28;20028;-83
2022/09/11 11:20:15;;;;;;;1.70;0.98;;;43.20;99.90;;;;;;5093864;28;20609;-83
2022/09/11 11:23:14;;;;;;;1.40;1.08;;;44.20;99.90;;;;;;5094307;28;20388;-83
2022/09/11 11:26:21;;;;;;;2.25;1.10;;;44.90;99.90;;;;;;5093636;28;20017;-84
2022/09/11 11:29:15;;;;;;;2.05;1.10;;;44.40;99.90;;;;;;4991854;28;20038;-83
2022/09/11 11:32:00;;;;;;;1.25;1.10;;;44.10;99.90;;;;;;4972460;28;20530;-83
2022/09/11 11:34:50;;;;;;;1.92;0.82;;;44.60;99.90;;;;;;4972432;28;20061;-83
2022/09/11 11:37:20;;;;;;;1.55;1.10;;;43.40;99.90;;;;;;4972571;28;20038;-83
2022/09/11 11:39:45;;;;;;;2.03;1.00;;;43.70;99.90;;;;;;4972427;28;20046;-83
2022/09/11 11:42:26;;;;;;;1.17;0.80;;;43.00;99.90;;;;;;4972435;28;20026;-83
2022/09/11 11:45:05;;;;;;;3.28;0.90;;;43.40;99.90;;;;;;4972207;28;20093;-83
2022/09/11 11:47:37;;;;;;;4.00;1.08;;;44.00;99.90;;;;;;4972356;28;20042;-83
2022/09/11 11:50:16;;;;;;;2.88;1.00;;;44.90;99.90;;;;;;4971871;28;20081;-83
2022/09/11 11:52:57;;;;;;;1.00;0.90;;;45.00;99.90;;;;;;4972619;28;20039;-84
2022/09/11 11:55:43;;;;;;;2.90;1.13;;;45.00;99.90;;;;;;4972327;28;20035;-83
2022/09/11 11:58:35;;;;;;;1.75;0.90;;;44.10;99.90;;;;;;4971714;28;20497;-83
2022/09/11 12:01:04;;;;;;;1.55;1.00;;;44.20;99.90;;;;;;5072848;28;20119;-83
2022/09/11 12:03:43;;;;;;;1.92;0.80;;;43.70;99.90;;;;;;5073121;28;20103;-83
2022/09/11 12:06:10;;;;;;;1.88;0.90;;;44.70;99.90;;;;;;5073510;28;20100;-83
2022/09/11 12:08:44;;;;;;;1.00;0.90;;;42.50;99.90;;;;;;5073516;28;20028;-83
2022/09/11 12:11:13;;;;;;;2.22;1.13;;;43.90;99.90;;;;;;5072737;28;20048;-84
2022/09/11 12:13:46;;;;;;;1.52;1.00;;;44.70;99.90;;;;;;5072209;28;20119;-84
2022/09/11 12:16:26;;;;;;;1.33;1.00;;;44.00;99.90;;;;;;5081354;28;20028;-84
2022/09/11 12:19:15;;;;;;;2.13;0.90;;;44.20;99.90;;;;;;5093064;28;20557;-84
2022/09/11 12:21:53;;;;;;;1.48;0.80;;;45.10;99.90;;;;;;5092835;28;20032;-84
2022/09/11 12:24:57;;;;;;;1.00;0.90;;;44.70;99.90;;;;;;5092690;28;20040;-84
2022/09/11 12:27:35;;;;;;;2.50;0.85;;;43.10;99.90;;;;;;4991183;28;20113;-84
2022/09/11 12:30:17;;;;;;;2.22;0.85;;;44.00;99.90;;;;;;4990885;28;20066;-84
2022/09/11 12:32:50;;;;;;;1.98;0.90;;;42.30;99.90;;;;;;4990830;28;20085;-84
2022/09/11 12:35:23;;;;;;;2.55;0.95;;;42.90;99.90;;;;;;4990803;28;20394;-84
2022/09/11 12:38:07;;;;;;;1.50;0.98;;;42.80;99.90;;;;;;4991021;28;20033;-84
2022/09/11 12:40:38;;;;;;;1.95;0.80;;;43.20;99.90;;;;;;4991294;28;20096;-84
2022/09/11 12:43:48;;;;;;;1.10;0.80;;;43.10;99.90;;;;;;4990890;28;20045;-84
2022/09/11 12:46:20;;;;;;;2.28;0.90;;;42.50;99.90;;;;;;4989506;28;20034;-84
2022/09/11 12:49:08;;;;;;;2.10;0.80;;;42.50;99.90;;;;;;4990885;28;20034;-84
2022/09/11 12:51:41;;;;;;;1.55;0.88;;;41.50;99.90;;;;;;4990648;28;20030;-84
2022/09/11 12:54:24;;;;;;;1.52;1.00;;;42.30;99.90;;;;;;4990916;28;20037;-84
2022/09/11 12:57:03;;;;;;;3.45;0.90;;;42.10;99.90;;;;;;4990421;28;20501;-84
2022/09/11 12:59:39;;;;;;;2.33;0.93;;;41.60;99.90;;;;;;4990618;28;20034;-84
2022/09/11 13:02:35;;;;;;;3.08;0.80;;;41.10;99.90;;;;;;5058163;28;20029;-84
2022/09/11 13:05:14;;;;;;;2.42;0.70;;;39.80;99.90;;;;;;5072184;28;20029;-84
2022/09/11 13:07:44;;;;;;;2.97;0.88;;;40.00;99.90;;;;;;5072058;28;20016;-84
2022/09/11 13:10:32;;;;;;;2.35;0.80;;;40.40;99.90;;;;;;5072088;28;20415;-84
2022/09/11 13:12:59;;;;;;;1.88;0.90;;;40.70;99.90;;;;;;5072321;28;20032;-84
2022/09/11 13:15:41;;;;;;;1.13;0.70;;;40.80;99.90;;;;;;5073602;28;20499;-84
2022/09/11 13:18:28;;;;;;;1.42;0.90;;;39.50;99.90;;;;;;5092311;28;20074;-84